Time;durP1;ratioP1;P1;durP2;ratioP2;P2;SDS_P1;SDS_P2;PMS_P1;PMS_P2;Temp;Humidity;BMP_temperature;BMP_pressure;BME280_temperature;BME280_humidity;BME280_pressure;Samples;Min_cycle;Max_cycle;Signal;HPM_P1;HPM_P2
2023/09/13 00:01:59;;;;;;;6.60;4.50;;;17.90;1.00;;;;;;4994261;28;21008;-74
2023/09/13 00:04:25;;;;;;;7.17;4.27;;;17.80;1.00;;;;;;4994127;28;20515;-74
2023/09/13 00:06:57;;;;;;;9.73;4.10;;;17.80;1.00;;;;;;4993144;28;20427;-74
2023/09/13 00:09:23;;;;;;;6.50;4.00;;;17.80;1.00;;;;;;4993719;28;20742;-73
2023/09/13 00:11:54;;;;;;;10.03;3.57;;;17.70;1.00;;;;;;4993162;28;20416;-72
2023/09/13 00:14:20;;;;;;;7.40;3.47;;;17.80;1.00;;;;;;4993973;28;20415;-74
2023/09/13 00:20:07;;;;;;;5.60;3.53;;;17.70;1.00;;;;;;4933830;29;20506;-74
2023/09/13 00:22:33;;;;;;;7.20;2.63;;;17.60;1.00;;;;;;4934073;29;20773;-73
2023/09/13 00:25:01;;;;;;;7.10;3.30;;;17.60;1.00;;;;;;4978487;28;20448;-73
2023/09/13 00:27:30;;;;;;;4.70;3.30;;;17.60;1.00;;;;;;4992270;28;21047;-73
2023/09/13 00:29:56;;;;;;;4.90;3.40;;;17.50;1.00;;;;;;4993680;28;20810;-73
2023/09/13 00:32:38;;;;;;;4.93;3.27;;;17.50;1.00;;;;;;4993854;28;20400;-74
2023/09/13 00:35:07;;;;;;;7.30;3.40;;;17.50;1.00;;;;;;4993702;28;20403;-74
2023/09/13 00:37:36;;;;;;;13.73;3.70;;;17.50;1.00;;;;;;4992992;28;21015;-73
2023/09/13 00:40:05;;;;;;;3.90;2.73;;;17.50;1.00;;;;;;4993780;28;20428;-73
2023/09/13 00:42:37;;;;;;;4.40;2.53;;;17.50;1.00;;;;;;4993673;28;20416;-73
2023/09/13 00:45:04;;;;;;;5.70;3.20;;;17.60;1.00;;;;;;4993109;28;20408;-73
2023/09/13 00:47:33;;;;;;;6.60;3.20;;;17.60;1.00;;;;;;4992375;28;20530;-73
2023/09/13 00:50:02;;;;;;;8.90;3.37;;;17.60;1.00;;;;;;4993651;28;20881;-74
2023/09/13 00:52:35;;;;;;;3.47;3.17;;;17.60;1.00;;;;;;4993366;28;20492;-74
2023/09/13 00:58:29;;;;;;;;;;;;;;;;;;;;;
2023/09/13 01:00:56;;;;;;;6.30;2.93;;;17.60;1.00;;;;;;4993347;28;20411;-73
2023/09/13 01:03:28;;;;;;;6.70;2.80;;;17.60;1.00;;;;;;4992505;28;20400;-74
2023/09/13 01:05:57;;;;;;;3.90;3.10;;;17.60;1.00;;;;;;4992581;28;20411;-73
2023/09/13 01:08:23;;;;;;;4.67;2.40;;;17.60;1.00;;;;;;4993314;28;20455;-73
2023/09/13 01:10:54;;;;;;;5.47;2.40;;;17.50;1.00;;;;;;4993448;28;20428;-72
2023/09/13 01:13:24;;;;;;;7.20;2.77;;;17.50;1.00;;;;;;4993314;28;20399;-74
2023/09/13 01:16:38;;;;;;;4.03;2.40;;;17.50;1.00;;;;;;4992382;28;20404;-73
2023/09/13 01:19:32;;;;;;;2.67;2.20;;;17.50;1.00;;;;;;4992558;28;20417;-74
2023/09/13 01:22:45;;;;;;;2.30;2.00;;;17.50;1.00;;;;;;4993369;28;20939;-73
2023/09/13 01:26:05;;;;;;;7.47;2.10;;;17.40;1.00;;;;;;4979552;28;20411;-74
2023/09/13 01:28:52;;;;;;;2.00;1.50;;;17.40;1.00;;;;;;4997042;28;20554;-73
2023/09/13 01:31:27;;;;;;;5.10;2.27;;;17.40;1.00;;;;;;4996988;28;20769;-74
2023/09/13 01:33:53;;;;;;;5.40;2.67;;;17.30;1.00;;;;;;4996923;28;20942;-73
2023/09/13 01:36:19;;;;;;;3.93;1.93;;;17.30;99.90;;;;;;4996134;28;20445;-74
2023/09/13 01:42:23;;;;;;;3.50;2.10;;;17.30;99.90;;;;;;4996743;28;20490;-73
2023/09/13 01:45:03;;;;;;;3.77;1.80;;;17.30;99.90;;;;;;4997095;28;20404;-74
2023/09/13 01:47:56;;;;;;;2.20;2.00;;;17.30;99.90;;;;;;4995735;28;20483;-74
2023/09/13 01:50:22;;;;;;;7.97;2.07;;;17.30;99.90;;;;;;4996747;28;20412;-74
2023/09/13 01:52:48;;;;;;;3.33;2.00;;;17.30;99.90;;;;;;4996621;28;20400;-75
2023/09/13 01:55:20;;;;;;;1.87;1.77;;;17.20;99.90;;;;;;4996432;28;20507;-73
2023/09/13 01:57:46;;;;;;;2.40;1.77;;;17.20;99.90;;;;;;4996297;28;20283;-74
2023/09/13 02:00:13;;;;;;;3.33;2.07;;;17.30;99.90;;;;;;4995720;28;20916;-74
2023/09/13 02:02:40;;;;;;;9.50;2.43;;;17.20;99.90;;;;;;4996481;28;20443;-74
2023/09/13 02:19:39;;;;;;;4.83;3.10;;;17.10;99.90;;;;;;4884079;29;20469;-73
2023/09/13 02:25:36;;;;;;;6.77;3.00;;;17.10;99.90;;;;;;4956938;28;20775;-73
2023/09/13 02:28:04;;;;;;;6.57;3.10;;;16.90;99.90;;;;;;4955151;28;20473;-73
2023/09/13 02:30:34;;;;;;;6.70;3.30;;;16.80;99.90;;;;;;4988976;28;20416;-74
2023/09/13 02:33:21;;;;;;;9.83;3.93;;;16.80;99.90;;;;;;4995699;28;20471;-72
2023/09/13 02:35:47;;;;;;;11.20;3.17;;;16.70;1.00;;;;;;4993678;28;20515;-74
2023/09/13 02:38:13;;;;;;;5.73;3.10;;;16.70;1.00;;;;;;4995893;28;20487;-75
2023/09/13 02:40:42;;;;;;;3.90;3.50;;;16.70;1.00;;;;;;4995791;28;20412;-74
2023/09/13 02:43:08;;;;;;;3.60;3.23;;;16.70;1.00;;;;;;4995613;28;20390;-72
2023/09/13 02:45:37;;;;;;;3.70;3.40;;;16.60;1.00;;;;;;4994948;28;20416;-74
2023/09/13 02:48:04;;;;;;;5.13;3.40;;;16.60;1.00;;;;;;4995523;28;20546;-74
2023/09/13 02:50:33;;;;;;;4.87;3.80;;;16.60;1.00;;;;;;4995660;28;20881;-72
2023/09/13 02:52:59;;;;;;;7.80;4.27;;;16.50;1.00;;;;;;4995550;28;20415;-73
2023/09/13 02:55:28;;;;;;;4.00;3.43;;;16.50;1.00;;;;;;4994141;28;21066;-73
2023/09/13 02:57:57;;;;;;;4.57;3.53;;;16.40;1.00;;;;;;4995268;28;20443;-74
2023/09/13 03:00:23;;;;;;;4.47;3.67;;;16.40;1.00;;;;;;4995473;28;20408;-74
2023/09/13 03:02:58;;;;;;;4.10;3.77;;;16.40;1.00;;;;;;4995509;28;20503;-73
2023/09/13 03:05:27;;;;;;;3.50;3.00;;;16.40;1.00;;;;;;4994724;28;20488;-73
2023/09/13 03:11:24;;;;;;;4.03;3.33;;;16.30;1.00;;;;;;4995298;28;20438;-74
2023/09/13 03:13:51;;;;;;;9.10;4.13;;;16.30;1.00;;;;;;4994231;28;20897;-74
2023/09/13 03:16:21;;;;;;;9.73;5.00;;;16.30;1.00;;;;;;4994079;28;20905;-74
2023/09/13 03:19:01;;;;;;;;;;;;;;;;;;;;;
2023/09/13 03:21:30;;;;;;;4.97;3.60;;;16.30;36.10;;;;;;4995057;28;20913;-73
2023/09/13 03:23:59;;;;;;;5.10;3.53;;;16.30;39.40;;;;;;4995008;28;20404;-71
2023/09/13 03:26:26;;;;;;;4.53;3.33;;;16.20;58.40;;;;;;4993920;28;20423;-72
2023/09/13 03:28:55;;;;;;;4.40;3.27;;;16.10;63.30;;;;;;4994962;28;20447;-73
2023/09/13 03:31:31;;;;;;;4.00;3.67;;;16.00;66.00;;;;;;4993968;28;20482;-73
2023/09/13 03:34:00;;;;;;;4.33;3.37;;;16.00;77.70;;;;;;4994883;28;20489;-74
2023/09/13 03:36:29;;;;;;;4.50;4.10;;;16.00;94.40;;;;;;4993765;28;20455;-73
2023/09/13 03:39:05;;;;;;;5.43;3.20;;;16.00;99.90;;;;;;4994627;28;20387;-71
2023/09/13 03:41:50;;;;;;;4.83;3.57;;;16.00;99.90;;;;;;4994857;28;20468;-71
2023/09/13 03:44:19;;;;;;;7.33;2.60;;;15.90;99.90;;;;;;4994694;28;20412;-73
2023/09/13 03:46:53;;;;;;;6.07;2.50;;;15.90;99.90;;;;;;4983874;28;20456;-74
2023/09/13 03:49:19;;;;;;;5.60;3.33;;;16.00;99.90;;;;;;4994621;28;20408;-73
2023/09/13 03:51:45;;;;;;;6.57;3.63;;;15.90;99.90;;;;;;4994506;28;20404;-74
2023/09/13 03:54:22;;;;;;;4.50;2.70;;;15.80;99.90;;;;;;4994500;28;20973;-74
2023/09/13 03:56:48;;;;;;;5.20;2.93;;;15.80;99.90;;;;;;4993544;28;20420;-74
2023/09/13 04:05:46;;;;;;;3.13;2.40;;;15.70;92.30;;;;;;4913913;29;20427;-73
2023/09/13 04:08:15;;;;;;;5.43;2.67;;;15.60;84.90;;;;;;4914669;29;21056;-75
2023/09/13 04:17:53;;;;;;;5.27;2.73;;;15.50;58.40;;;;;;4933262;29;20962;-76
2023/09/13 04:20:20;;;;;;;6.43;2.73;;;15.40;51.80;;;;;;4977098;28;20788;-74
2023/09/13 04:22:57;;;;;;;13.63;3.17;;;15.40;46.70;;;;;;4993379;28;20401;-76
2023/09/13 04:32:48;;;;;;;7.10;3.23;;;15.20;37.60;;;;;;4971678;28;20988;-78
2023/09/13 04:42:02;;;;;;;6.27;3.17;;;15.00;57.60;;;;;;4780732;29;20793;-77
2023/09/13 04:44:31;;;;;;;8.00;2.60;;;15.00;68.40;;;;;;4873691;29;20912;-75
2023/09/13 04:47:26;;;;;;;4.23;2.43;;;15.10;78.10;;;;;;4913261;29;20439;-77
2023/09/13 04:49:52;;;;;;;4.10;3.03;;;15.10;81.50;;;;;;4914672;29;20452;-72
2023/09/13 04:52:18;;;;;;;7.63;2.53;;;15.10;84.50;;;;;;4950041;28;20408;-77
2023/09/13 04:54:44;;;;;;;8.87;3.03;;;15.10;84.50;;;;;;4993451;28;21004;-73
2023/09/13 04:57:13;;;;;;;3.73;2.17;;;15.10;85.70;;;;;;4992185;28;20511;-73
2023/09/13 04:59:51;;;;;;;15.50;3.80;;;15.10;85.60;;;;;;4993478;28;20169;-75
2023/09/13 05:02:17;;;;;;;6.67;2.70;;;15.10;91.70;;;;;;4992220;28;20408;-71
2023/09/13 05:04:46;;;;;;;6.47;2.77;;;15.10;92.50;;;;;;4993378;28;20393;-72
2023/09/13 05:07:13;;;;;;;7.00;3.30;;;15.10;93.20;;;;;;4991974;28;20511;-77
2023/09/13 05:09:40;;;;;;;9.27;2.97;;;15.10;93.80;;;;;;4993244;28;20404;-74
2023/09/13 05:12:06;;;;;;;6.47;2.60;;;15.10;93.10;;;;;;4993305;28;20412;-74
2023/09/13 05:14:37;;;;;;;11.20;3.33;;;15.20;93.10;;;;;;4993383;28;20446;-72
2023/09/13 05:17:05;;;;;;;5.83;2.47;;;15.10;93.50;;;;;;4974530;28;20469;-77
2023/09/13 05:19:31;;;;;;;4.23;3.03;;;15.30;95.10;;;;;;4992453;28;20739;-72
2023/09/13 05:22:06;;;;;;;6.13;2.90;;;15.20;91.60;;;;;;4993164;28;20411;-70
2023/09/13 05:24:34;;;;;;;4.33;2.50;;;15.20;91.40;;;;;;4993310;28;20378;-72
2023/09/13 05:27:01;;;;;;;7.33;2.43;;;15.20;85.30;;;;;;4992216;28;20398;-77
2023/09/13 05:29:29;;;;;;;4.00;2.90;;;15.30;84.60;;;;;;4992946;28;20957;-75
2023/09/13 05:31:59;;;;;;;3.40;2.63;;;15.30;84.60;;;;;;4993102;28;20431;-77
2023/09/13 05:34:25;;;;;;;7.93;2.10;;;15.30;79.80;;;;;;4992978;28;20703;-76
2023/09/13 05:37:29;;;;;;;3.13;2.43;;;15.30;73.00;;;;;;4991551;28;20424;-73
2023/09/13 05:39:55;;;;;;;4.17;2.87;;;15.30;76.80;;;;;;4986992;28;20393;-74
2023/09/13 05:42:34;;;;;;;5.97;3.10;;;15.40;75.10;;;;;;4993137;28;20412;-72
2023/09/13 05:45:01;;;;;;;4.03;2.13;;;15.50;75.50;;;;;;4975655;28;20829;-76
2023/09/13 05:47:30;;;;;;;5.80;2.87;;;15.60;78.60;;;;;;4992098;28;20963;-71
2023/09/13 05:49:55;;;;;;;5.67;3.07;;;15.60;79.00;;;;;;4993107;28;20913;-77
2023/09/13 05:52:24;;;;;;;4.73;2.97;;;15.70;76.40;;;;;;4992976;28;20404;-71
2023/09/13 06:01:38;;;;;;;8.20;2.67;;;15.70;21.40;;;;;;4992902;28;20450;-72
2023/09/13 06:04:08;;;;;;;6.43;2.97;;;15.70;1.00;;;;;;4993070;28;20411;-76
2023/09/13 06:11:01;;;;;;;5.87;2.80;;;15.60;1.00;;;;;;4917875;28;20522;-74
2023/09/13 06:13:29;;;;;;;3.80;2.40;;;15.70;1.00;;;;;;4927870;28;20503;-72
2023/09/13 06:15:57;;;;;;;5.07;2.10;;;15.80;1.00;;;;;;4995437;28;20491;-73
2023/09/13 06:18:23;;;;;;;4.30;2.30;;;15.80;1.00;;;;;;4996154;28;20435;-73
2023/09/13 06:21:15;;;;;;;5.47;2.93;;;15.90;1.00;;;;;;4996414;28;20400;-73
2023/09/13 06:23:41;;;;;;;4.67;2.70;;;15.90;1.00;;;;;;4996085;28;20177;-76
2023/09/13 06:26:17;;;;;;;4.20;2.17;;;15.80;1.00;;;;;;4994962;28;20440;-71
2023/09/13 06:28:43;;;;;;;7.13;2.40;;;15.90;1.00;;;;;;4996008;28;20235;-76
2023/09/13 06:31:14;;;;;;;3.80;1.77;;;15.90;1.00;;;;;;4995654;28;20424;-74
2023/09/13 06:36:55;;;;;;;5.13;2.40;;;15.80;1.00;;;;;;4972610;28;20433;-71
2023/09/13 06:39:23;;;;;;;5.87;2.27;;;15.90;1.00;;;;;;4994990;28;20420;-76
2023/09/13 07:00:09;;;;;;;7.80;2.43;;;16.10;1.00;;;;;;4916610;29;20995;-73
2023/09/13 07:05:38;;;;;;;7.10;2.27;;;16.00;1.00;;;;;;4916094;29;20610;-76
2023/09/13 07:08:05;;;;;;;5.83;2.57;;;16.10;1.00;;;;;;4916151;29;20471;-71
2023/09/13 07:10:35;;;;;;;11.53;2.80;;;16.20;1.00;;;;;;4915716;29;20391;-77
2023/09/13 07:13:04;;;;;;;3.47;2.00;;;16.20;1.00;;;;;;4948182;28;20525;-73
2023/09/13 07:16:08;;;;;;;7.30;2.77;;;16.20;1.00;;;;;;4974612;28;20409;-76
2023/09/13 07:18:34;;;;;;;3.17;1.80;;;16.20;1.00;;;;;;4958259;28;20470;-72
2023/09/13 07:22:03;;;;;;;6.53;2.60;;;16.20;99.90;;;;;;4975485;28;20945;-77
2023/09/13 07:24:32;;;;;;;4.97;2.30;;;16.40;99.90;;;;;;4966791;28;20992;-72
2023/09/13 07:27:21;;;;;;;9.27;2.60;;;16.40;99.90;;;;;;4956467;28;20496;-76
2023/09/13 07:29:47;;;;;;;8.63;3.60;;;16.50;99.90;;;;;;4963690;28;20425;-73
2023/09/13 07:40:00;;;;;;;5.00;3.03;;;16.50;99.90;;;;;;4975655;28;20819;-72
2023/09/13 07:42:26;;;;;;;7.17;2.37;;;16.60;99.90;;;;;;4975261;28;20823;-72
2023/09/13 07:51:08;;;;;;;5.80;2.43;;;16.50;99.90;;;;;;4952175;28;20408;-76
2023/09/13 07:54:16;;;;;;;6.83;2.87;;;16.60;99.90;;;;;;4975138;28;20401;-76
2023/09/13 07:57:25;;;;;;;6.40;2.23;;;16.50;99.90;;;;;;4973944;28;20181;-76
2023/09/13 07:59:51;;;;;;;2.93;1.97;;;16.60;99.90;;;;;;4973906;28;20425;-73
2023/09/13 08:12:41;;;;;;;13.13;2.73;;;16.70;99.90;;;;;;4974714;28;20450;-73
2023/09/13 08:15:07;;;;;;;4.13;2.07;;;16.80;99.90;;;;;;4974551;28;20405;-74
2023/09/13 08:34:24;;;;;;;7.60;3.00;;;16.60;99.90;;;;;;4896003;29;20436;-76
2023/09/13 08:36:53;;;;;;;3.40;1.73;;;16.80;99.90;;;;;;4895088;29;20532;-73
2023/09/13 08:39:51;;;;;;;2.93;2.50;;;16.70;99.90;;;;;;4973496;28;20507;-72
2023/09/13 08:48:46;;;;;;;3.30;2.30;;;16.80;99.90;;;;;;4974136;28;20455;-76
2023/09/13 08:51:16;;;;;;;2.03;1.83;;;17.00;99.90;;;;;;4974150;28;20810;-73
2023/09/13 08:57:55;;;;;;;3.97;2.13;;;17.40;99.90;;;;;;4972747;28;20778;-76
2023/09/13 09:00:41;;;;;;;4.50;1.90;;;17.50;99.90;;;;;;4967130;28;20770;-71
2023/09/13 09:09:19;;;;;;;5.43;1.70;;;17.70;99.90;;;;;;4973957;28;20495;-77
2023/09/13 09:11:51;;;;;;;3.07;1.90;;;17.70;99.90;;;;;;4956919;28;20925;-76
2023/09/13 09:18:07;;;;;;;6.37;4.10;;;17.60;99.90;;;;;;4973748;28;20813;-76
2023/09/13 09:33:59;;;;;;;4.80;1.90;;;17.40;94.70;;;;;;4871947;29;20855;-72
2023/09/13 09:36:14;;;;;;;3.40;2.20;;;17.40;77.20;;;;;;4872098;29;20540;-71
2023/09/13 09:39:18;;;;;;;6.17;2.60;;;17.40;73.10;;;;;;4893490;29;20416;-71
2023/09/13 09:41:44;;;;;;;4.50;1.73;;;17.40;59.50;;;;;;4939498;28;20831;-77
2023/09/13 09:48:17;;;;;;;3.63;1.93;;;17.50;43.20;;;;;;4936558;29;20513;-77
2023/09/13 09:50:52;;;;;;;2.87;2.00;;;17.70;52.60;;;;;;4937142;29;20430;-72
2023/09/13 09:53:38;;;;;;;;;;;;;;;;;;;;;
2023/09/13 09:59:59;;;;;;;1.87;1.27;;;17.90;1.00;;;;;;4955561;28;20508;-75
2023/09/13 10:02:44;;;;;;;4.13;1.93;;;17.80;1.00;;;;;;4955620;28;20425;-70
2023/09/13 10:05:23;;;;;;;;;;;;;;;;;;;;;
2023/09/13 10:07:56;;;;;;;11.03;1.90;;;17.90;1.00;;;;;;4976373;28;20467;-77
2023/09/13 10:13:47;;;;;;;3.67;1.70;;;18.30;1.00;;;;;;4976392;28;20420;-77
2023/09/13 10:16:39;;;;;;;6.90;1.70;;;18.50;1.00;;;;;;4958684;28;20412;-72
2023/09/13 10:19:14;;;;;;;1.83;1.50;;;18.70;1.00;;;;;;4976816;28;20425;-77
2023/09/13 10:21:42;;;;;;;4.57;1.60;;;18.90;1.00;;;;;;4976710;28;20409;-76
2023/09/13 10:24:13;;;;;;;3.10;1.60;;;19.10;1.00;;;;;;4959795;28;20437;-76
2023/09/13 10:46:42;;;;;;;4.23;1.90;;;18.50;1.00;;;;;;4878329;29;20432;-75
2023/09/13 10:49:17;;;;;;;2.83;2.40;;;18.50;1.00;;;;;;4897703;29;20528;-72
2023/09/13 10:51:43;;;;;;;3.63;1.83;;;18.30;1.00;;;;;;4932876;29;20966;-72
2023/09/13 10:54:14;;;;;;;4.07;1.93;;;18.30;1.00;;;;;;4964361;28;20428;-73
2023/09/13 10:56:40;;;;;;;2.83;1.70;;;18.20;1.00;;;;;;4974946;28;20496;-76
2023/09/13 10:59:08;;;;;;;3.17;1.70;;;18.30;1.00;;;;;;4976171;28;20471;-72
2023/09/13 11:01:36;;;;;;;3.13;2.17;;;18.30;1.00;;;;;;4959038;28;20463;-76
2023/09/13 11:04:48;;;;;;;4.23;2.40;;;18.20;1.00;;;;;;4976071;28;20437;-77
2023/09/13 11:07:51;;;;;;;2.57;1.40;;;18.10;1.00;;;;;;4974250;28;20452;-72
2023/09/13 11:14:05;;;;;;;;;;;;;;;;;;;;;
2023/09/13 11:24:22;;;;;;;;;;;;;;;;;;;;;
2023/09/13 11:27:25;;;;;;;6.50;1.97;;;18.00;1.00;;;;;;4866999;29;20443;-72
2023/09/13 11:29:58;;;;;;;2.33;1.43;;;17.90;1.00;;;;;;4926093;28;20432;-72
2023/09/13 11:32:34;;;;;;;4.17;1.90;;;17.90;1.00;;;;;;4975586;28;20409;-71
2023/09/13 11:49:30;;;;;;;4.30;1.60;;;18.20;1.00;;;;;;4975677;28;20456;-76
2023/09/13 11:52:28;;;;;;;2.83;1.60;;;18.30;1.00;;;;;;4990840;28;20440;-76
2023/09/13 11:58:38;;;;;;;2.50;1.67;;;18.30;1.00;;;;;;4983600;28;20436;-76
2023/09/13 12:01:22;;;;;;;2.10;1.40;;;18.40;1.00;;;;;;4975208;28;20849;-76
2023/09/13 12:04:08;;;;;;;1.20;1.10;;;18.10;1.00;;;;;;4994103;28;20784;-76
2023/09/13 12:07:16;;;;;;;10.57;1.63;;;18.20;1.00;;;;;;4991439;28;20439;-73
2023/09/13 12:10:17;;;;;;;4.03;1.33;;;18.20;1.00;;;;;;4967121;28;20448;-72
2023/09/13 12:12:46;;;;;;;3.40;1.63;;;18.30;1.00;;;;;;4968229;28;20421;-76
2023/09/13 12:15:27;;;;;;;3.13;1.77;;;18.40;1.00;;;;;;4974385;28;20409;-72
2023/09/13 12:18:01;;;;;;;1.97;1.57;;;18.60;1.00;;;;;;4973896;28;20436;-72
2023/09/13 12:20:46;;;;;;;3.50;1.80;;;18.70;1.00;;;;;;4974485;28;20409;-75
2023/09/13 12:23:16;;;;;;;4.83;1.93;;;18.80;1.00;;;;;;4957518;28;20445;-74
2023/09/13 12:25:43;;;;;;;6.07;1.50;;;18.80;1.00;;;;;;4985687;28;20516;-75
2023/09/13 12:30:56;;;;;;;1.63;1.50;;;18.80;1.00;;;;;;4992690;28;20436;-76
2023/09/13 12:33:30;;;;;;;2.87;1.73;;;18.90;1.00;;;;;;4992029;28;20443;-73
2023/09/13 12:36:03;;;;;;;2.73;1.57;;;19.00;1.00;;;;;;4991551;28;20401;-74
2023/09/13 12:38:46;;;;;;;2.77;1.57;;;19.00;1.00;;;;;;4993469;28;20793;-72
2023/09/13 12:41:14;;;;;;;1.70;1.50;;;19.10;1.00;;;;;;4975269;28;20447;-73
2023/09/13 12:43:45;;;;;;;2.37;1.30;;;19.00;1.00;;;;;;4976134;28;20779;-76
2023/09/13 12:46:50;;;;;;;;;;;;;;;;;;;;;
2023/09/13 12:49:16;;;;;;;4.87;1.73;;;19.00;1.00;;;;;;4992026;28;20474;-73
2023/09/13 12:51:42;;;;;;;2.60;1.20;;;19.00;1.00;;;;;;4993715;28;20494;-75
2023/09/13 12:54:14;;;;;;;4.13;1.70;;;18.90;1.00;;;;;;4993289;28;20188;-74
2023/09/13 12:56:40;;;;;;;6.40;1.60;;;18.90;1.00;;;;;;4990680;28;20495;-75
2023/09/13 13:02:17;;;;;;;3.23;1.37;;;18.80;1.00;;;;;;4992425;28;20785;-72
2023/09/13 13:04:47;;;;;;;5.70;1.83;;;18.70;1.00;;;;;;4993280;28;20444;-76
2023/09/13 13:07:47;;;;;;;1.90;1.17;;;18.70;1.00;;;;;;4975223;28;20432;-76
2023/09/13 13:10:16;;;;;;;2.33;1.30;;;18.60;1.00;;;;;;4955371;28;20842;-72
2023/09/13 13:13:02;;;;;;;2.73;1.30;;;18.50;1.00;;;;;;4992508;28;20404;-74
2023/09/13 13:19:09;;;;;;;1.40;1.20;;;18.20;1.00;;;;;;4995629;28;20773;-75
2023/09/13 13:25:34;;;;;;;4.80;1.70;;;18.00;1.00;;;;;;4996227;28;20455;-72
2023/09/13 13:28:08;;;;;;;2.70;1.57;;;18.00;1.00;;;;;;4993248;28;21046;-73
2023/09/13 13:30:35;;;;;;;2.70;1.60;;;18.00;1.00;;;;;;4994893;28;20438;-75
2023/09/13 13:33:04;;;;;;;3.70;1.40;;;18.10;1.00;;;;;;4996970;28;20499;-75
2023/09/13 13:35:40;;;;;;;2.80;1.67;;;18.20;1.00;;;;;;4995289;28;20415;-72
2023/09/13 13:38:06;;;;;;;3.67;1.40;;;18.30;1.00;;;;;;4996975;28;20497;-76
2023/09/13 13:40:47;;;;;;;4.67;1.80;;;18.30;1.00;;;;;;4993984;28;20438;-72
2023/09/13 13:43:16;;;;;;;4.37;1.60;;;18.30;1.00;;;;;;4996750;28;20426;-76
2023/09/13 13:45:45;;;;;;;1.57;1.17;;;18.20;1.00;;;;;;4994953;28;20436;-75
2023/09/13 13:48:11;;;;;;;3.93;1.50;;;18.20;1.00;;;;;;4978134;28;20896;-75
2023/09/13 13:50:39;;;;;;;2.50;2.00;;;18.30;1.00;;;;;;4979675;28;20420;-72
2023/09/13 13:53:05;;;;;;;3.70;1.10;;;18.40;1.00;;;;;;4995455;28;20514;-74
2023/09/13 13:55:42;;;;;;;1.60;1.50;;;18.30;1.00;;;;;;4994771;28;20526;-76
2023/09/13 13:58:12;;;;;;;2.57;1.50;;;18.30;1.00;;;;;;4995405;28;20494;-72
2023/09/13 14:00:48;;;;;;;2.17;1.23;;;18.20;1.00;;;;;;4979398;28;20416;-73
2023/09/13 14:03:14;;;;;;;3.60;1.77;;;18.10;1.00;;;;;;4996411;28;20523;-73
2023/09/13 14:05:40;;;;;;;5.80;1.70;;;18.50;1.00;;;;;;4978337;28;20418;-76
2023/09/13 14:08:08;;;;;;;3.13;1.10;;;18.80;1.00;;;;;;4996399;28;20474;-74
2023/09/13 14:10:45;;;;;;;1.53;1.40;;;19.00;1.00;;;;;;4996202;28;20396;-73
2023/09/13 14:16:15;;;;;;;4.27;1.53;;;19.30;1.00;;;;;;4995775;28;20411;-76
2023/09/13 14:18:41;;;;;;;1.90;1.27;;;19.30;1.00;;;;;;4979009;28;20435;-71
2023/09/13 14:21:06;;;;;;;2.70;1.13;;;19.40;1.00;;;;;;4996234;28;20412;-73
2023/09/13 14:23:32;;;;;;;3.37;1.30;;;19.60;1.00;;;;;;4996325;28;20455;-76
2023/09/13 14:25:58;;;;;;;2.70;1.60;;;20.00;1.00;;;;;;4995296;28;20653;-76
2023/09/13 14:28:24;;;;;;;2.30;1.37;;;20.90;1.00;;;;;;4996081;28;20447;-76
2023/09/13 14:30:52;;;;;;;4.90;1.30;;;22.00;1.00;;;;;;4994744;28;20407;-76
2023/09/13 14:33:19;;;;;;;4.33;1.10;;;23.40;1.00;;;;;;4995749;28;20646;-73
2023/09/13 14:35:44;;;;;;;2.30;1.43;;;24.80;1.00;;;;;;4995167;28;20463;-75
2023/09/13 14:38:10;;;;;;;1.40;1.30;;;25.70;99.90;;;;;;4996087;28;20460;-73
2023/09/13 14:40:36;;;;;;;3.40;1.20;;;25.60;99.90;;;;;;4996012;28;20177;-76
2023/09/13 14:43:02;;;;;;;3.27;0.90;;;25.20;99.90;;;;;;4995890;28;20173;-73
2023/09/13 14:45:28;;;;;;;1.53;0.80;;;24.80;99.90;;;;;;4977561;28;20708;-72
2023/09/13 14:47:53;;;;;;;1.37;0.90;;;25.10;99.90;;;;;;4994936;28;20555;-77
2023/09/13 14:50:19;;;;;;;3.63;1.83;;;25.70;99.90;;;;;;4978347;28;20256;-72
2023/09/13 14:52:45;;;;;;;1.40;1.00;;;26.50;99.90;;;;;;4995783;28;20184;-76
2023/09/13 14:55:11;;;;;;;3.47;1.10;;;26.70;99.90;;;;;;4978094;28;20173;-73
2023/09/13 14:57:37;;;;;;;1.90;1.30;;;26.30;99.90;;;;;;4994647;28;20189;-77
2023/09/13 15:00:15;;;;;;;;;;;;;;;;;;;;;
2023/09/13 15:02:44;;;;;;;1.77;0.80;;;26.90;99.90;;;;;;4995476;28;20749;-74
2023/09/13 15:05:10;;;;;;;2.83;1.43;;;27.50;99.90;;;;;;4994568;28;20908;-77
2023/09/13 15:07:55;;;;;;;;;;;;;;;;;;;;;
2023/09/13 15:10:21;;;;;;;3.37;1.23;;;27.20;99.90;;;;;;4995366;28;20169;-77
2023/09/13 15:13:10;;;;;;;1.60;1.00;;;26.30;99.90;;;;;;4995432;28;20491;-76
2023/09/13 15:15:38;;;;;;;1.63;1.07;;;25.30;99.90;;;;;;4965336;28;20180;-75
2023/09/13 15:18:29;;;;;;;2.50;1.63;;;24.10;99.90;;;;;;4977523;28;20804;-73
2023/09/13 15:20:55;;;;;;;1.40;0.90;;;22.90;99.90;;;;;;4995026;28;20416;-76
2023/09/13 15:27:21;;;;;;;2.03;1.20;;;21.30;99.90;;;;;;4994005;28;20179;-72
2023/09/13 15:33:16;;;;;;;1.53;1.17;;;20.30;99.90;;;;;;4922138;28;20764;-72
2023/09/13 15:35:42;;;;;;;1.67;1.50;;;19.70;99.90;;;;;;4993815;28;20496;-76
2023/09/13 15:38:08;;;;;;;2.47;1.80;;;19.50;99.90;;;;;;4994423;28;20432;-75
2023/09/13 15:40:52;;;;;;;3.07;1.70;;;19.50;99.90;;;;;;4994538;28;20405;-76
2023/09/13 15:43:20;;;;;;;4.40;1.80;;;19.40;99.90;;;;;;4994796;28;20987;-72
2023/09/13 15:45:52;;;;;;;2.80;1.57;;;19.10;99.90;;;;;;4993750;28;20400;-74
2023/09/13 15:52:33;;;;;;;;;;;;;;;;;;;;;
2023/09/13 16:08:41;;;;;;;;;;;;;;;;;;;;;
2023/09/13 16:17:45;;;;;;;2.37;1.30;;;18.10;99.90;;;;;;4993808;28;20992;-73
2023/09/13 16:27:29;;;;;;;3.93;1.53;;;17.80;99.90;;;;;;4898289;29;20532;-76
2023/09/13 16:29:57;;;;;;;2.00;1.80;;;17.80;99.90;;;;;;4895719;29;20511;-75
2023/09/13 16:33:14;;;;;;;2.30;1.63;;;17.70;99.90;;;;;;4895564;29;20429;-76
2023/09/13 16:35:40;;;;;;;1.97;1.70;;;17.70;99.90;;;;;;4895251;29;20834;-73
2023/09/13 16:38:40;;;;;;;4.07;3.00;;;17.60;99.90;;;;;;4916587;28;20680;-73
2023/09/13 16:48:17;;;;;;;;;;;;;;;;;;;;;
2023/09/13 16:50:47;;;;;;;2.70;1.30;;;17.60;99.90;;;;;;4952827;28;20406;-77
2023/09/13 16:56:29;;;;;;;2.60;2.07;;;17.50;99.90;;;;;;4951504;28;20412;-75
2023/09/13 17:00:00;;;;;;;;;;;;;;;;;;;;;
2023/09/13 17:02:30;;;;;;;6.30;1.53;;;17.40;99.90;;;;;;4990059;28;20430;-73
2023/09/13 17:04:56;;;;;;;2.53;1.50;;;17.40;99.90;;;;;;4993544;28;20832;-74
2023/09/13 17:07:27;;;;;;;2.07;1.80;;;17.30;99.90;;;;;;4991768;28;20482;-76
2023/09/13 17:09:53;;;;;;;1.70;1.57;;;17.20;99.90;;;;;;4993355;28;20432;-77
2023/09/13 17:12:19;;;;;;;3.90;1.80;;;17.20;99.90;;;;;;4993368;28;20499;-77
2023/09/13 17:17:45;;;;;;;3.93;2.70;;;17.00;99.90;;;;;;4992600;28;20487;-76
2023/09/13 17:20:11;;;;;;;2.13;1.93;;;16.90;99.90;;;;;;4993535;28;20404;-74
2023/09/13 17:22:37;;;;;;;2.63;1.30;;;16.80;99.90;;;;;;4992964;28;20892;-76
2023/09/13 17:25:04;;;;;;;3.07;1.97;;;16.80;99.90;;;;;;4975774;28;20474;-73
2023/09/13 17:27:30;;;;;;;2.57;1.50;;;16.70;99.90;;;;;;4974653;28;20842;-76
2023/09/13 17:29:55;;;;;;;4.23;2.17;;;16.60;99.90;;;;;;4993349;28;20512;-74
2023/09/13 17:32:21;;;;;;;2.17;1.60;;;16.50;99.90;;;;;;4993261;28;20452;-74
2023/09/13 17:34:47;;;;;;;3.97;1.60;;;16.40;99.90;;;;;;4993222;28;20200;-75
2023/09/13 17:37:21;;;;;;;1.90;1.43;;;16.30;1.00;;;;;;4975062;28;20432;-74
2023/09/13 17:39:47;;;;;;;1.80;1.67;;;16.20;1.00;;;;;;4975886;28;20412;-74
2023/09/13 17:42:13;;;;;;;5.67;1.67;;;16.20;1.00;;;;;;4992768;28;20423;-74
2023/09/13 17:44:39;;;;;;;2.80;1.70;;;16.10;1.00;;;;;;4993056;28;20416;-76
2023/09/13 17:56:41;;;;;;;5.27;2.53;;;15.80;1.00;;;;;;4992101;28;20451;-76
2023/09/13 17:59:07;;;;;;;5.83;2.60;;;15.70;1.00;;;;;;4992765;28;20400;-75
2023/09/13 18:01:33;;;;;;;1.87;1.77;;;15.60;1.00;;;;;;4992651;28;20782;-74
2023/09/13 18:04:00;;;;;;;5.80;1.90;;;15.50;1.00;;;;;;4992914;28;20419;-75
2023/09/13 18:06:26;;;;;;;4.20;1.80;;;15.40;1.00;;;;;;4977872;28;20412;-74
2023/09/13 18:12:15;;;;;;;2.70;2.33;;;15.20;1.00;;;;;;4923995;28;20769;-74
2023/09/13 18:15:01;;;;;;;7.63;3.97;;;15.10;1.00;;;;;;4978969;28;20412;-75
2023/09/13 18:17:32;;;;;;;4.23;2.13;;;15.00;1.00;;;;;;4994061;28;20491;-76
2023/09/13 18:19:58;;;;;;;2.93;2.73;;;14.90;1.00;;;;;;4995789;28;20427;-76
2023/09/13 18:22:36;;;;;;;3.80;2.33;;;14.90;1.00;;;;;;4996251;28;20414;-75
2023/09/13 18:25:04;;;;;;;2.73;2.37;;;14.90;1.00;;;;;;4995982;28;20408;-74
2023/09/13 18:27:30;;;;;;;3.43;1.97;;;14.80;1.00;;;;;;4995268;28;20419;-73
2023/09/13 18:29:58;;;;;;;3.00;2.70;;;14.80;1.00;;;;;;4996122;28;20916;-74
2023/09/13 18:36:43;;;;;;;4.53;2.27;;;14.60;1.00;;;;;;4973489;28;20409;-75
2023/09/13 18:39:12;;;;;;;4.33;2.03;;;14.50;1.00;;;;;;4930616;28;20429;-75
2023/09/13 18:41:38;;;;;;;3.30;2.47;;;14.40;1.00;;;;;;4974416;28;20409;-73
2023/09/13 18:44:09;;;;;;;2.27;1.90;;;14.30;1.00;;;;;;4974472;28;20452;-73
2023/09/13 18:46:56;;;;;;;2.57;2.07;;;14.30;1.00;;;;;;4980844;28;20443;-73
2023/09/13 18:52:36;;;;;;;6.10;2.73;;;14.20;1.00;;;;;;4991016;28;20403;-73
2023/09/13 18:55:08;;;;;;;3.13;2.83;;;14.20;1.00;;;;;;4978118;28;20386;-73
2023/09/13 18:57:44;;;;;;;5.33;2.70;;;14.20;1.00;;;;;;4994309;28;20927;-74